Time;durP1;ratioP1;P1;durP2;ratioP2;P2;SDS_P1;SDS_P2;PMS_P1;PMS_P2;Temp;Humidity;BMP_temperature;BMP_pressure;BME280_temperature;BME280_humidity;BME280_pressure;Samples;Min_cycle;Max_cycle;Signal;HPM_P1;HPM_P2
2022/04/18 00:01:42;;;;;;;10.50;7.82;;;8.40;64.00;;;;;;5089469;28;20499;-78
2022/04/18 00:04:08;;;;;;;11.50;8.10;;;8.40;64.00;;;;;;5099512;28;20043;-78
2022/04/18 00:06:36;;;;;;;11.02;8.05;;;8.30;64.30;;;;;;5083008;28;20092;-78
2022/04/18 00:09:02;;;;;;;13.77;8.40;;;8.30;64.90;;;;;;5080464;28;20047;-78
2022/04/18 00:11:28;;;;;;;10.23;7.97;;;8.30;65.00;;;;;;5104291;28;20066;-78
2022/04/18 00:13:54;;;;;;;10.18;8.02;;;8.20;65.60;;;;;;5082065;28;20051;-78
2022/04/18 00:16:19;;;;;;;11.80;7.95;;;8.20;65.10;;;;;;5090324;28;20048;-79
2022/04/18 00:18:45;;;;;;;11.70;8.20;;;8.10;65.20;;;;;;5070891;28;20537;-78
2022/04/18 00:21:11;;;;;;;11.65;8.05;;;8.10;65.40;;;;;;5070624;28;20052;-78
2022/04/18 00:23:36;;;;;;;15.10;8.82;;;8.10;65.40;;;;;;5087845;28;20100;-78
2022/04/18 00:26:02;;;;;;;12.02;8.32;;;8.10;65.90;;;;;;5100251;28;20113;-78
2022/04/18 00:28:28;;;;;;;11.70;7.80;;;8.00;66.50;;;;;;5110484;28;20044;-78
2022/04/18 00:30:54;;;;;;;10.10;8.25;;;7.90;66.40;;;;;;5092807;28;20047;-78
2022/04/18 00:33:19;;;;;;;11.73;8.10;;;7.90;67.10;;;;;;5092544;28;20065;-78
2022/04/18 00:35:45;;;;;;;11.98;8.60;;;7.80;67.30;;;;;;5092580;28;20051;-79
2022/04/18 00:38:10;;;;;;;13.13;8.63;;;7.80;68.20;;;;;;5092757;28;20055;-78
2022/04/18 00:40:36;;;;;;;10.95;7.90;;;7.80;67.70;;;;;;5110443;28;20036;-78
2022/04/18 00:43:03;;;;;;;11.95;7.55;;;7.80;68.30;;;;;;5111036;28;20040;-77
2022/04/18 00:45:29;;;;;;;12.43;8.40;;;7.70;68.70;;;;;;5097870;28;20080;-79
2022/04/18 00:47:55;;;;;;;10.38;8.02;;;7.70;69.00;;;;;;5103799;28;20051;-78
2022/04/18 00:50:21;;;;;;;13.38;9.02;;;7.60;69.90;;;;;;5113257;28;20069;-78
2022/04/18 00:52:49;;;;;;;12.98;8.75;;;7.60;69.70;;;;;;5115463;28;20616;-78
2022/04/18 00:55:15;;;;;;;14.60;9.68;;;7.60;70.30;;;;;;5096711;28;20059;-78
2022/04/18 00:57:41;;;;;;;11.77;8.77;;;7.60;70.80;;;;;;5103523;28;20402;-78
2022/04/18 01:00:07;;;;;;;13.70;8.50;;;7.60;71.30;;;;;;5084183;28;20115;-79
2022/04/18 01:02:32;;;;;;;11.73;8.48;;;7.50;71.60;;;;;;5101758;28;20094;-78
2022/04/18 01:04:58;;;;;;;12.32;8.23;;;7.50;73.20;;;;;;5102845;28;20076;-79
2022/04/18 01:07:24;;;;;;;12.00;8.57;;;7.50;73.00;;;;;;5086896;28;20054;-79
2022/04/18 01:09:52;;;;;;;13.07;8.85;;;7.50;73.70;;;;;;5104248;28;20035;-79
2022/04/18 01:12:18;;;;;;;12.63;9.00;;;7.40;73.70;;;;;;5081290;28;20047;-78
2022/04/18 01:14:48;;;;;;;12.50;8.43;;;7.40;73.80;;;;;;5105063;28;20057;-79
2022/04/18 01:17:16;;;;;;;11.45;7.93;;;7.50;74.40;;;;;;5083159;28;20047;-78
2022/04/18 01:19:43;;;;;;;10.98;8.20;;;7.40;75.40;;;;;;5096216;28;20047;-78
2022/04/18 01:22:09;;;;;;;13.93;9.15;;;7.40;76.10;;;;;;5120263;27;20035;-79
2022/04/18 01:30:05;;;;;;;17.20;9.57;;;7.30;76.70;;;;;;5112177;27;20104;-78
2022/04/18 01:32:31;;;;;;;13.60;8.38;;;7.30;76.70;;;;;;5114271;28;20039;-78
2022/04/18 01:34:57;;;;;;;11.45;8.50;;;7.30;77.10;;;;;;5095315;28;20113;-78
2022/04/18 01:37:23;;;;;;;14.95;9.07;;;7.30;78.40;;;;;;5094673;28;20073;-77
2022/04/18 01:39:49;;;;;;;12.30;9.13;;;7.30;78.70;;;;;;5093944;28;20425;-76
2022/04/18 01:42:15;;;;;;;13.60;9.10;;;7.30;78.90;;;;;;5113295;28;20047;-77
2022/04/18 01:44:41;;;;;;;11.10;9.00;;;7.30;79.90;;;;;;5112311;28;20040;-78
2022/04/18 01:47:07;;;;;;;11.18;9.32;;;7.30;80.80;;;;;;5113580;28;20048;-77
2022/04/18 01:49:32;;;;;;;13.48;8.95;;;7.30;82.00;;;;;;5113843;28;20455;-78
2022/04/18 01:51:58;;;;;;;11.68;8.75;;;7.20;83.90;;;;;;5112355;28;20060;-76
2022/04/18 01:54:23;;;;;;;13.18;8.82;;;7.20;84.50;;;;;;5095415;28;20066;-77
2022/04/18 01:56:49;;;;;;;13.82;9.70;;;7.20;85.50;;;;;;5113528;28;20039;-77
2022/04/18 01:59:15;;;;;;;14.00;10.32;;;7.20;86.20;;;;;;5093847;28;20544;-77
2022/04/18 02:01:40;;;;;;;15.40;10.43;;;7.10;88.80;;;;;;5095074;28;20161;-77
2022/04/18 02:04:09;;;;;;;12.20;8.38;;;7.10;90.10;;;;;;5094796;28;20047;-77
2022/04/18 02:06:35;;;;;;;12.07;8.27;;;7.00;90.80;;;;;;5094088;28;20055;-78
2022/04/18 02:09:01;;;;;;;13.02;9.38;;;7.00;90.90;;;;;;5094490;28;20056;-77
2022/04/18 02:11:27;;;;;;;11.10;7.85;;;7.00;91.30;;;;;;5094442;28;20051;-77
2022/04/18 02:13:52;;;;;;;11.13;8.50;;;7.00;91.90;;;;;;5112113;28;20040;-76
2022/04/18 02:16:20;;;;;;;12.13;8.80;;;7.00;92.40;;;;;;5113284;28;20501;-77
2022/04/18 02:18:46;;;;;;;18.17;10.13;;;6.90;93.30;;;;;;5113041;28;20509;-76
2022/04/18 02:21:12;;;;;;;13.82;9.70;;;6.90;93.40;;;;;;5093678;28;20078;-77
2022/04/18 02:23:39;;;;;;;13.68;9.30;;;6.90;93.90;;;;;;5112943;28;20521;-77
2022/04/18 02:26:04;;;;;;;16.77;9.73;;;6.90;94.00;;;;;;5111892;28;20148;-77
2022/04/18 02:28:31;;;;;;;14.25;8.90;;;6.90;94.40;;;;;;5094193;28;20490;-77
2022/04/18 02:30:57;;;;;;;12.02;9.07;;;6.90;95.30;;;;;;5094517;28;20070;-77
2022/04/18 02:33:23;;;;;;;13.45;9.60;;;6.90;95.50;;;;;;5112008;28;20534;-77
2022/04/18 02:35:49;;;;;;;17.45;10.93;;;6.90;95.90;;;;;;5112679;28;20122;-76
2022/04/18 02:38:14;;;;;;;16.45;10.32;;;6.80;96.70;;;;;;5112435;28;20042;-77
2022/04/18 02:40:40;;;;;;;15.07;10.20;;;6.80;97.50;;;;;;5093376;28;20501;-76
2022/04/18 02:43:06;;;;;;;14.20;9.90;;;6.70;97.50;;;;;;5094030;28;20489;-77
2022/04/18 02:45:32;;;;;;;11.93;8.93;;;6.70;97.80;;;;;;5112662;28;20052;-77
2022/04/18 02:47:58;;;;;;;12.35;9.50;;;6.70;98.20;;;;;;5111635;28;20108;-77
2022/04/18 02:50:25;;;;;;;17.40;9.18;;;6.70;98.60;;;;;;5094103;28;20486;-77
2022/04/18 02:52:50;;;;;;;11.75;9.18;;;6.70;98.70;;;;;;5094143;28;20071;-76
2022/04/18 02:55:16;;;;;;;15.25;9.93;;;6.60;99.90;;;;;;5111634;28;20478;-77
2022/04/18 02:57:42;;;;;;;13.20;9.52;;;6.50;99.90;;;;;;5112225;28;20044;-77
2022/04/18 03:00:10;;;;;;;16.33;10.18;;;6.50;99.90;;;;;;5112123;28;20039;-76
2022/04/18 03:02:36;;;;;;;12.23;8.82;;;6.50;99.90;;;;;;5111418;28;20397;-76
2022/04/18 03:05:06;;;;;;;16.00;9.82;;;6.40;99.90;;;;;;5111697;28;20406;-77
2022/04/18 03:07:32;;;;;;;14.20;10.07;;;6.40;99.90;;;;;;5093814;28;20100;-77
2022/04/18 03:09:58;;;;;;;15.80;10.35;;;6.30;99.90;;;;;;5107778;28;20113;-77
2022/04/18 03:12:23;;;;;;;15.00;10.82;;;6.30;99.90;;;;;;5111387;28;20148;-76
2022/04/18 03:14:49;;;;;;;19.92;10.90;;;6.30;99.90;;;;;;5093623;28;20039;-76
2022/04/18 03:17:16;;;;;;;12.15;9.25;;;6.30;99.90;;;;;;5110992;28;20051;-76
2022/04/18 03:19:41;;;;;;;15.57;9.27;;;6.30;99.90;;;;;;5093533;28;20430;-76
2022/04/18 03:22:07;;;;;;;13.50;9.52;;;6.20;99.90;;;;;;5110933;28;20075;-77
2022/04/18 03:24:34;;;;;;;19.05;11.10;;;6.20;99.90;;;;;;5091967;28;20467;-76
2022/04/18 03:27:01;;;;;;;12.13;9.20;;;6.20;99.90;;;;;;5093103;28;20489;-76
2022/04/18 03:29:26;;;;;;;13.13;8.73;;;6.20;99.90;;;;;;5111180;28;20043;-76
2022/04/18 03:31:53;;;;;;;12.68;9.00;;;6.10;99.90;;;;;;5093009;28;20055;-76
2022/04/18 03:34:19;;;;;;;13.80;8.88;;;6.10;99.90;;;;;;5111593;28;20039;-76
2022/04/18 03:42:14;;;;;;;12.90;8.57;;;6.10;99.90;;;;;;5111248;28;20412;-77
2022/04/18 03:44:43;;;;;;;15.10;9.70;;;6.10;99.90;;;;;;5092286;28;20092;-76
2022/04/18 03:47:10;;;;;;;12.27;9.30;;;6.10;99.90;;;;;;5092670;28;20044;-76
2022/04/18 03:49:35;;;;;;;11.02;8.82;;;6.10;99.90;;;;;;5093038;28;20056;-76
2022/04/18 03:52:01;;;;;;;14.95;10.05;;;6.00;99.90;;;;;;5091805;28;20051;-76
2022/04/18 03:54:26;;;;;;;13.45;9.02;;;6.00;99.90;;;;;;5111504;28;20048;-76
2022/04/18 03:56:52;;;;;;;14.07;9.25;;;6.00;99.90;;;;;;5092562;28;20417;-76
2022/04/18 03:59:21;;;;;;;14.95;9.30;;;5.90;99.90;;;;;;5110654;28;20048;-76
2022/04/18 04:01:46;;;;;;;12.55;9.23;;;5.80;99.90;;;;;;5092464;28;20044;-77
2022/04/18 04:04:12;;;;;;;11.85;8.90;;;5.80;99.90;;;;;;5110888;28;20071;-76
2022/04/18 04:06:37;;;;;;;16.67;8.80;;;5.80;99.90;;;;;;5092447;28;20050;-76
2022/04/18 04:09:03;;;;;;;14.85;9.63;;;5.80;99.90;;;;;;5102819;28;20552;-77
2022/04/18 04:11:29;;;;;;;12.93;9.30;;;5.80;99.90;;;;;;5097500;28;20402;-75
2022/04/18 04:13:55;;;;;;;16.58;10.05;;;5.70;99.90;;;;;;5104078;28;20508;-77
2022/04/18 04:16:21;;;;;;;14.90;9.70;;;6.00;99.90;;;;;;5131614;28;20047;-76
2022/04/18 04:18:47;;;;;;;12.60;9.32;;;5.70;99.90;;;;;;5112635;28;20046;-77
2022/04/18 04:21:13;;;;;;;12.20;8.80;;;5.70;99.90;;;;;;5112519;28;20083;-76
2022/04/18 04:23:38;;;;;;;15.07;9.52;;;5.70;99.90;;;;;;5113373;28;20108;-76
2022/04/18 04:26:04;;;;;;;12.85;8.93;;;5.60;99.90;;;;;;5130476;28;20046;-76
2022/04/18 04:28:30;;;;;;;17.63;10.15;;;5.60;99.90;;;;;;5131360;28;20051;-76
2022/04/18 04:30:58;;;;;;;12.63;9.95;;;5.60;99.90;;;;;;5131136;28;20086;-76
2022/04/18 04:33:24;;;;;;;15.52;9.57;;;5.60;99.90;;;;;;5112291;27;20059;-76
2022/04/18 04:35:49;;;;;;;13.13;9.90;;;5.50;99.90;;;;;;5126060;27;20532;-76
2022/04/18 04:38:15;;;;;;;16.05;10.80;;;5.50;99.90;;;;;;5129936;27;20039;-76
2022/04/18 04:40:40;;;;;;;18.90;10.05;;;5.50;99.90;;;;;;5134778;27;20455;-76
2022/04/18 04:43:06;;;;;;;13.82;9.45;;;5.50;99.90;;;;;;5100270;28;20052;-76
2022/04/18 04:45:32;;;;;;;12.88;9.57;;;5.50;99.90;;;;;;5114578;28;20094;-76
2022/04/18 04:47:58;;;;;;;13.93;9.18;;;5.40;99.90;;;;;;5097761;27;20055;-76
2022/04/18 04:50:23;;;;;;;14.88;9.55;;;5.40;99.90;;;;;;5119688;27;20096;-76
2022/04/18 04:52:49;;;;;;;12.55;9.45;;;5.40;99.90;;;;;;5134724;27;20047;-76
2022/04/18 04:55:15;;;;;;;14.82;9.73;;;5.40;99.90;;;;;;5098054;28;20478;-76
2022/04/18 04:57:40;;;;;;;13.30;9.20;;;5.40;99.90;;;;;;5096607;28;20469;-76
2022/04/18 05:00:06;;;;;;;17.67;9.50;;;5.40;99.90;;;;;;5134296;27;20066;-76
2022/04/18 05:02:32;;;;;;;15.80;9.23;;;5.40;99.90;;;;;;5134175;27;20473;-77
2022/04/18 05:04:58;;;;;;;13.95;9.35;;;5.30;99.90;;;;;;5134890;27;20122;-77
2022/04/18 05:07:24;;;;;;;15.48;9.10;;;5.30;99.90;;;;;;5135143;27;20043;-76
2022/04/18 05:09:49;;;;;;;12.00;9.15;;;5.40;99.90;;;;;;5116023;27;20091;-76
2022/04/18 05:12:15;;;;;;;13.05;9.18;;;5.40;99.90;;;;;;5117190;27;20063;-76
2022/04/18 05:14:40;;;;;;;13.23;9.52;;;5.40;99.90;;;;;;5086649;28;20056;-76
2022/04/18 05:17:06;;;;;;;14.07;9.43;;;5.40;99.90;;;;;;5091592;28;20055;-76
2022/04/18 05:19:31;;;;;;;11.30;9.10;;;5.50;99.90;;;;;;5114024;28;20036;-76
2022/04/18 05:21:57;;;;;;;14.98;8.35;;;5.50;99.90;;;;;;5088034;28;20078;-77
2022/04/18 05:24:23;;;;;;;14.40;8.75;;;5.50;99.90;;;;;;5128465;27;20465;-76
2022/04/18 05:26:48;;;;;;;12.93;8.32;;;5.50;99.90;;;;;;5099474;27;20405;-76
2022/04/18 05:29:14;;;;;;;12.00;9.73;;;5.60;99.90;;;;;;5133623;27;20035;-76
2022/04/18 05:31:39;;;;;;;13.55;8.90;;;5.60;99.90;;;;;;5116124;27;20055;-76
2022/04/18 05:34:05;;;;;;;16.00;8.73;;;5.60;99.90;;;;;;5115704;27;20043;-76
2022/04/18 05:36:30;;;;;;;11.25;8.32;;;5.70;99.90;;;;;;5122822;27;20055;-76
2022/04/18 05:38:56;;;;;;;14.55;10.00;;;5.70;99.90;;;;;;5099558;27;20044;-77
2022/04/18 05:41:21;;;;;;;13.15;8.98;;;5.80;99.90;;;;;;5115633;27;20054;-77
2022/04/18 05:43:49;;;;;;;15.20;9.20;;;5.80;99.90;;;;;;5098665;28;20048;-76
2022/04/18 05:46:15;;;;;;;13.13;8.95;;;5.90;99.90;;;;;;5112303;28;20076;-76
2022/04/18 05:48:41;;;;;;;11.23;8.48;;;6.00;99.90;;;;;;5113523;28;20425;-76
2022/04/18 05:51:07;;;;;;;14.68;8.68;;;6.00;99.90;;;;;;5112510;28;20052;-77
2022/04/18 05:53:34;;;;;;;13.48;8.88;;;6.10;99.90;;;;;;5113638;28;20096;-76
2022/04/18 05:56:00;;;;;;;13.25;8.98;;;6.20;99.90;;;;;;5094877;28;20055;-76
2022/04/18 05:58:26;;;;;;;13.40;9.25;;;6.20;99.90;;;;;;5108225;28;20528;-77
2022/04/18 06:00:52;;;;;;;11.07;8.57;;;6.30;99.90;;;;;;5094853;27;20535;-76
2022/04/18 06:03:18;;;;;;;11.27;7.75;;;6.40;99.90;;;;;;5101480;28;20059;-76
2022/04/18 06:05:44;;;;;;;11.73;9.10;;;6.40;99.90;;;;;;5112606;28;20043;-77
2022/04/18 06:08:09;;;;;;;13.27;9.45;;;6.60;99.90;;;;;;5094814;28;20440;-77
2022/04/18 06:10:40;;;;;;;12.45;8.63;;;6.60;99.90;;;;;;5113255;28;20073;-77
2022/04/18 06:13:08;;;;;;;14.73;8.23;;;6.70;99.90;;;;;;5112254;28;20044;-77
2022/04/18 06:15:34;;;;;;;14.27;9.00;;;6.80;99.90;;;;;;5104480;27;20063;-76
2022/04/18 06:18:00;;;;;;;15.05;9.40;;;6.90;99.90;;;;;;5107789;28;20047;-76
2022/04/18 06:20:25;;;;;;;13.75;8.60;;;7.00;99.90;;;;;;5097810;27;20039;-77
2022/04/18 06:22:51;;;;;;;10.82;9.13;;;7.10;99.90;;;;;;5114550;27;20508;-78
2022/04/18 06:25:17;;;;;;;10.77;8.10;;;7.20;99.90;;;;;;5132806;27;20079;-77
2022/04/18 06:27:42;;;;;;;12.02;8.25;;;7.20;99.90;;;;;;5133593;27;20043;-77
2022/04/18 06:30:08;;;;;;;12.93;9.10;;;7.30;99.90;;;;;;5106801;28;20071;-77
2022/04/18 06:32:37;;;;;;;12.48;8.30;;;7.40;99.90;;;;;;5125457;27;20035;-78
2022/04/18 06:35:04;;;;;;;11.98;7.70;;;7.50;99.90;;;;;;5109251;27;20040;-77
2022/04/18 06:37:32;;;;;;;10.70;8.18;;;7.60;99.90;;;;;;5074335;28;20505;-77
2022/04/18 06:39:58;;;;;;;10.15;7.70;;;7.70;99.90;;;;;;5091418;28;20131;-77
2022/04/18 06:42:23;;;;;;;13.52;8.00;;;7.90;99.90;;;;;;5073735;28;20083;-78
2022/04/18 06:44:52;;;;;;;11.65;8.43;;;8.00;99.90;;;;;;5091946;28;20075;-77
2022/04/18 06:47:19;;;;;;;10.48;7.68;;;8.10;99.90;;;;;;5091476;28;20066;-77
2022/04/18 06:49:47;;;;;;;10.07;7.88;;;8.20;99.90;;;;;;5073843;28;20048;-77
2022/04/18 06:52:13;;;;;;;9.65;8.23;;;8.30;99.90;;;;;;5073300;28;20052;-77
2022/04/18 06:54:39;;;;;;;11.93;8.45;;;8.40;99.90;;;;;;5091436;28;20039;-77
2022/04/18 06:57:04;;;;;;;10.38;8.20;;;8.50;99.90;;;;;;5073147;28;20079;-77
2022/04/18 06:59:30;;;;;;;13.93;8.93;;;8.60;99.90;;;;;;5073946;28;20071;-77
2022/04/18 07:01:57;;;;;;;10.98;7.85;;;8.70;99.90;;;;;;5111135;27;20039;-77
2022/04/18 07:04:23;;;;;;;9.27;7.28;;;8.80;99.90;;;;;;5118338;27;20494;-77
2022/04/18 07:06:50;;;;;;;7.97;7.18;;;9.00;99.90;;;;;;5118382;27;20054;-77
2022/04/18 07:09:16;;;;;;;13.85;7.82;;;9.00;99.90;;;;;;5111212;28;20479;-77
2022/04/18 07:11:44;;;;;;;9.63;7.70;;;9.20;99.90;;;;;;5095167;28;20085;-77
2022/04/18 07:14:11;;;;;;;11.68;7.82;;;9.30;99.90;;;;;;5073157;28;20829;-77
2022/04/18 07:16:36;;;;;;;11.35;7.85;;;9.40;99.90;;;;;;5072710;28;20052;-77
2022/04/18 07:19:02;;;;;;;12.90;7.75;;;9.50;99.90;;;;;;5091481;28;20379;-77
2022/04/18 07:21:28;;;;;;;11.82;7.45;;;9.70;99.90;;;;;;5091007;28;20112;-77
2022/04/18 07:23:53;;;;;;;11.27;7.35;;;9.80;99.90;;;;;;5091233;28;20127;-77
2022/04/18 07:26:20;;;;;;;14.50;7.88;;;9.90;99.90;;;;;;5091515;28;20036;-77
2022/04/18 07:28:46;;;;;;;9.02;7.68;;;10.00;99.90;;;;;;5072544;28;20055;-77
2022/04/18 07:31:12;;;;;;;10.20;7.60;;;10.10;99.90;;;;;;5096579;28;20082;-77
2022/04/18 07:33:38;;;;;;;9.52;7.68;;;10.30;99.90;;;;;;5085863;28;20087;-77
2022/04/18 07:36:04;;;;;;;10.10;7.07;;;10.40;99.90;;;;;;5075967;28;20044;-78
2022/04/18 07:41:18;;;;;;;11.70;7.35;;;10.60;99.90;;;;;;5111281;27;20086;-78
2022/04/18 07:43:44;;;;;;;10.75;7.82;;;10.70;99.90;;;;;;5099540;28;20134;-78
2022/04/18 07:46:10;;;;;;;10.13;7.13;;;10.90;99.90;;;;;;5107388;28;20123;-78
2022/04/18 07:48:35;;;;;;;10.77;7.05;;;11.00;99.90;;;;;;5076443;28;20134;-78
2022/04/18 07:53:45;;;;;;;9.75;7.70;;;11.20;99.40;;;;;;5092170;28;20447;-76
2022/04/18 07:56:11;;;;;;;8.00;6.70;;;11.30;97.00;;;;;;5086845;28;20085;-79
2022/04/18 07:58:37;;;;;;;12.32;7.53;;;11.40;97.70;;;;;;5098760;28;20048;-79
2022/04/18 08:01:03;;;;;;;9.68;7.10;;;11.50;97.30;;;;;;5085975;28;20118;-79
2022/04/18 08:03:28;;;;;;;8.30;6.70;;;11.60;97.40;;;;;;5106455;28;20035;-79
2022/04/18 08:05:57;;;;;;;10.85;7.35;;;11.60;96.20;;;;;;5106644;28;20051;-78
2022/04/18 08:08:22;;;;;;;13.68;7.07;;;11.80;96.20;;;;;;5076147;28;20457;-83
2022/04/18 08:10:48;;;;;;;9.93;7.15;;;11.90;95.50;;;;;;5089023;28;20119;-79
2022/04/18 08:13:14;;;;;;;10.95;7.50;;;12.00;94.30;;;;;;5078875;28;20066;-82
2022/04/18 08:15:40;;;;;;;8.45;6.50;;;12.00;93.80;;;;;;5079373;28;20058;-82
2022/04/18 08:18:05;;;;;;;10.93;7.40;;;12.10;92.40;;;;;;5096099;28;20410;-79
2022/04/18 08:20:31;;;;;;;10.20;7.30;;;12.20;91.90;;;;;;5103509;28;20096;-80
2022/04/18 08:22:56;;;;;;;11.85;7.05;;;12.20;91.30;;;;;;5107421;27;20043;-81
2022/04/18 08:25:22;;;;;;;10.73;7.10;;;12.30;90.60;;;;;;5087540;28;20048;-81
2022/04/18 08:27:48;;;;;;;13.70;7.25;;;12.40;90.90;;;;;;5094956;28;20100;-80
2022/04/18 08:30:13;;;;;;;10.13;6.43;;;12.50;90.50;;;;;;5090451;28;20062;-73
2022/04/18 08:32:40;;;;;;;9.85;6.93;;;12.60;90.70;;;;;;5103797;28;20047;-71
2022/04/18 08:35:07;;;;;;;8.35;6.13;;;12.70;91.10;;;;;;5117460;28;20052;-75
2022/04/18 08:37:34;;;;;;;8.52;6.95;;;12.80;89.30;;;;;;5117716;28;20103;-78
2022/04/18 08:40:01;;;;;;;12.63;7.18;;;12.90;89.30;;;;;;5089865;28;20501;-78
2022/04/18 08:42:35;;;;;;;10.43;6.82;;;13.00;89.20;;;;;;5082338;28;20135;-77
2022/04/18 08:45:08;;;;;;;8.65;6.93;;;13.10;89.20;;;;;;5113727;28;20054;-79
2022/04/18 08:53:17;;;;;;;8.20;6.30;;;13.80;87.00;;;;;;5094609;28;20126;-75
2022/04/18 08:55:43;;;;;;;9.30;6.57;;;13.40;85.90;;;;;;5104611;27;20458;-76
2022/04/18 08:58:11;;;;;;;9.63;6.30;;;13.50;85.60;;;;;;5090444;28;20440;-79
2022/04/18 09:00:37;;;;;;;8.15;6.95;;;13.60;83.40;;;;;;5087232;28;20106;-78
2022/04/18 09:03:03;;;;;;;8.95;6.50;;;13.60;83.50;;;;;;5099866;28;20079;-79
2022/04/18 09:05:35;;;;;;;8.95;6.30;;;13.70;83.50;;;;;;5093730;28;20526;-82
2022/04/18 09:08:07;;;;;;;7.70;6.53;;;13.80;81.00;;;;;;5088282;28;20079;-81
2022/04/18 09:10:34;;;;;;;9.40;6.43;;;13.90;82.90;;;;;;5096921;28;20380;-80
2022/04/18 09:13:08;;;;;;;9.95;6.65;;;14.10;82.10;;;;;;5097233;28;20043;-81
2022/04/18 09:15:35;;;;;;;11.00;6.22;;;14.10;76.60;;;;;;5116596;28;20463;-81
2022/04/18 09:18:10;;;;;;;7.50;6.45;;;14.10;78.70;;;;;;5098953;28;20043;-81
2022/04/18 09:20:43;;;;;;;8.50;6.13;;;14.20;78.00;;;;;;5115865;28;20035;-80
2022/04/18 09:23:22;;;;;;;7.97;5.90;;;14.20;79.40;;;;;;5095069;28;20087;-80
2022/04/18 09:26:10;;;;;;;13.18;7.18;;;14.40;77.40;;;;;;5096098;28;20052;-81
2022/04/18 09:28:37;;;;;;;8.32;5.68;;;14.40;76.80;;;;;;5094619;28;20055;-82
2022/04/18 09:31:04;;;;;;;11.57;6.65;;;14.50;75.50;;;;;;5095001;28;20051;-80
2022/04/18 09:33:37;;;;;;;9.20;7.00;;;14.60;75.40;;;;;;5113823;28;20047;-80
2022/04/18 09:36:08;;;;;;;8.45;6.65;;;14.70;75.80;;;;;;5094726;28;20048;-80
2022/04/18 09:38:39;;;;;;;9.93;6.10;;;14.80;75.30;;;;;;5114086;28;20108;-79
2022/04/18 09:41:05;;;;;;;9.68;6.13;;;14.90;74.00;;;;;;5095103;28;20490;-83
2022/04/18 09:43:45;;;;;;;7.10;6.05;;;15.00;75.00;;;;;;5113171;28;20062;-80
2022/04/18 09:46:12;;;;;;;5.93;5.32;;;15.10;72.10;;;;;;5113287;28;20054;-80
2022/04/18 09:48:39;;;;;;;8.55;5.70;;;15.70;72.70;;;;;;5113841;28;20047;-80
2022/04/18 09:51:09;;;;;;;8.82;6.10;;;15.20;72.10;;;;;;5112320;28;20470;-81
2022/04/18 09:53:36;;;;;;;7.20;6.00;;;15.30;71.90;;;;;;5113636;28;20108;-81
2022/04/18 09:56:04;;;;;;;6.05;5.30;;;15.30;70.30;;;;;;5112927;28;20047;-79
2022/04/18 09:58:32;;;;;;;9.20;6.03;;;15.40;69.60;;;;;;5113288;28;20478;-80
2022/04/18 10:01:02;;;;;;;7.47;5.93;;;15.50;70.80;;;;;;5113151;28;20071;-80
2022/04/18 10:03:27;;;;;;;8.38;5.88;;;15.50;69.00;;;;;;5112939;28;20054;-81
2022/04/18 10:05:54;;;;;;;8.00;5.40;;;15.60;68.30;;;;;;5094701;28;20055;-81
2022/04/18 10:08:20;;;;;;;7.70;5.20;;;15.70;68.50;;;;;;5113191;28;20068;-80
2022/04/18 10:10:47;;;;;;;8.18;5.22;;;15.80;68.00;;;;;;5112538;28;20043;-79
2022/04/18 10:13:13;;;;;;;6.68;4.88;;;15.80;67.00;;;;;;5112882;28;20104;-81
2022/04/18 10:15:39;;;;;;;7.80;5.45;;;15.90;67.70;;;;;;5094666;28;20126;-81
2022/04/18 10:18:07;;;;;;;8.70;5.25;;;16.00;66.50;;;;;;5112157;28;20055;-81
2022/04/18 10:20:49;;;;;;;6.22;5.10;;;16.00;65.40;;;;;;5094567;28;20134;-80
2022/04/18 10:23:33;;;;;;;6.78;4.70;;;16.10;65.80;;;;;;5112743;28;20553;-80
2022/04/18 10:26:30;;;;;;;6.50;5.00;;;16.10;64.40;;;;;;5093693;28;20502;-80
2022/04/18 10:29:01;;;;;;;7.10;4.95;;;16.20;61.10;;;;;;5094509;28;20054;-80
2022/04/18 10:31:32;;;;;;;5.68;4.63;;;16.30;64.20;;;;;;5093346;28;20078;-80
2022/04/18 10:33:58;;;;;;;7.97;4.45;;;16.30;63.50;;;;;;5094058;28;20043;-79
2022/04/18 10:36:31;;;;;;;4.50;4.10;;;16.40;64.90;;;;;;5113018;28;20044;-81
2022/04/18 10:39:00;;;;;;;9.57;5.05;;;16.50;64.30;;;;;;5118690;28;20047;-79
2022/04/18 10:41:42;;;;;;;7.20;4.65;;;16.60;62.90;;;;;;5112747;28;20498;-80
2022/04/18 10:44:09;;;;;;;4.40;4.00;;;16.60;60.90;;;;;;5112300;28;20493;-80
2022/04/18 10:46:37;;;;;;;5.00;4.13;;;16.70;61.60;;;;;;5093749;28;20101;-81
2022/04/18 10:49:16;;;;;;;4.88;4.28;;;16.80;61.90;;;;;;5112285;28;20048;-79
2022/04/18 10:51:44;;;;;;;4.72;4.22;;;16.90;61.20;;;;;;5093960;28;20104;-80
2022/04/18 10:54:17;;;;;;;6.40;4.15;;;16.90;61.20;;;;;;5093078;28;20082;-82
2022/04/18 10:57:01;;;;;;;4.47;4.00;;;17.00;59.90;;;;;;5094319;28;20051;-81
2022/04/18 10:59:29;;;;;;;5.57;3.10;;;17.10;58.40;;;;;;5093341;28;20436;-80
2022/04/18 11:02:01;;;;;;;3.92;2.83;;;17.10;58.70;;;;;;5111886;28;20051;-80
2022/04/18 11:04:29;;;;;;;3.83;3.45;;;17.20;57.50;;;;;;5094195;28;20177;-80
2022/04/18 11:07:01;;;;;;;4.15;3.15;;;17.30;57.00;;;;;;5092947;28;20048;-81
2022/04/18 11:09:28;;;;;;;4.25;3.30;;;17.30;56.90;;;;;;5111991;28;20100;-80
2022/04/18 11:12:05;;;;;;;3.10;2.75;;;17.40;56.20;;;;;;5093333;28;20043;-79
2022/04/18 11:14:48;;;;;;;3.17;2.63;;;17.70;55.10;;;;;;5111350;28;20516;-80
2022/04/18 11:17:37;;;;;;;3.63;2.60;;;17.50;52.40;;;;;;5111664;28;20487;-80
2022/04/18 11:20:27;;;;;;;5.90;3.55;;;17.60;55.10;;;;;;5093085;28;20100;-79
2022/04/18 11:23:19;;;;;;;4.82;3.28;;;17.60;53.80;;;;;;5111486;28;20062;-83
2022/04/18 11:25:54;;;;;;;2.97;2.65;;;17.70;52.40;;;;;;5093461;28;20490;-80
2022/04/18 11:28:23;;;;;;;3.38;3.08;;;17.90;56.10;;;;;;5110940;28;20573;-80
2022/04/18 11:30:49;;;;;;;2.90;2.70;;;17.90;54.00;;;;;;5098338;28;20043;-80
2022/04/18 11:33:15;;;;;;;3.17;2.60;;;18.10;54.50;;;;;;5103375;28;20180;-81
2022/04/18 11:35:40;;;;;;;3.30;2.95;;;18.00;55.00;;;;;;5094322;28;20055;-80
2022/04/18 11:38:07;;;;;;;3.65;3.35;;;18.10;53.70;;;;;;5111392;28;20048;-80
2022/04/18 11:40:40;;;;;;;3.15;2.55;;;18.10;52.40;;;;;;5093383;28;20136;-78
2022/04/18 11:43:13;;;;;;;6.63;3.22;;;18.00;48.90;;;;;;5092061;28;20047;-80
2022/04/18 11:45:39;;;;;;;4.80;3.25;;;18.00;50.00;;;;;;5111337;28;20047;-79
2022/04/18 11:48:07;;;;;;;4.40;2.95;;;18.10;49.90;;;;;;5092270;28;20396;-81
2022/04/18 11:50:37;;;;;;;4.43;2.78;;;18.10;50.10;;;;;;5110612;28;20048;-81
2022/04/18 11:53:02;;;;;;;3.53;2.97;;;18.10;50.30;;;;;;5092861;28;20493;-80
2022/04/18 11:55:28;;;;;;;3.78;2.63;;;18.10;50.70;;;;;;5111627;28;20120;-80
2022/04/18 11:57:54;;;;;;;4.47;2.85;;;18.20;49.90;;;;;;5110598;28;20128;-80
2022/04/18 12:08:39;;;;;;;4.38;3.25;;;18.30;50.00;;;;;;5092922;28;20047;-80
2022/04/18 12:11:04;;;;;;;3.88;2.70;;;18.40;50.60;;;;;;5091897;28;20040;-79
2022/04/18 12:13:31;;;;;;;3.75;2.80;;;18.70;50.00;;;;;;5111130;28;20048;-81
2022/04/18 12:15:59;;;;;;;3.33;2.30;;;18.40;50.10;;;;;;5092364;28;20044;-81
2022/04/18 12:18:25;;;;;;;4.03;2.92;;;18.50;49.90;;;;;;5110748;28;20050;-81
2022/04/18 12:20:52;;;;;;;4.63;3.08;;;18.60;49.90;;;;;;5092575;28;20055;-81
2022/04/18 12:23:29;;;;;;;3.30;2.70;;;18.70;50.20;;;;;;5111274;28;20127;-80
2022/04/18 12:25:57;;;;;;;3.53;3.10;;;18.60;49.60;;;;;;5091622;28;20490;-81
2022/04/18 12:28:28;;;;;;;5.20;2.75;;;18.70;50.60;;;;;;5111063;28;20378;-81
2022/04/18 12:30:55;;;;;;;5.18;2.75;;;18.80;49.20;;;;;;5110245;28;20077;-80
2022/04/18 12:33:26;;;;;;;6.43;3.17;;;18.70;50.30;;;;;;5092691;28;20062;-81
2022/04/18 12:35:53;;;;;;;2.70;2.50;;;18.80;48.00;;;;;;5110604;28;20508;-80
2022/04/18 12:38:28;;;;;;;3.10;2.90;;;18.80;49.30;;;;;;5092375;28;20064;-79
2022/04/18 12:40:56;;;;;;;3.67;2.45;;;18.90;49.10;;;;;;5110535;28;20367;-81
2022/04/18 12:43:26;;;;;;;2.55;2.35;;;18.90;48.10;;;;;;5092671;28;20044;-80
2022/04/18 12:45:58;;;;;;;3.03;2.72;;;19.00;47.30;;;;;;5110177;28;20059;-80
2022/04/18 12:48:25;;;;;;;;;;;19.00;48.00;;;;;;5111424;28;20123;-81
2022/04/18 12:50:53;;;;;;;2.60;2.38;;;19.00;46.10;;;;;;5092165;28;19931;-80
2022/04/18 12:53:20;;;;;;;5.97;2.70;;;19.00;47.70;;;;;;5110314;28;20090;-80
2022/04/18 12:55:46;;;;;;;6.30;2.83;;;19.10;48.20;;;;;;5094441;28;20085;-81
2022/04/18 12:58:19;;;;;;;2.85;2.60;;;19.10;48.40;;;;;;5096281;28;20055;-80
2022/04/18 13:00:47;;;;;;;3.17;2.70;;;19.20;48.50;;;;;;5095419;28;20057;-82
2022/04/18 13:03:14;;;;;;;3.63;3.03;;;19.20;47.90;;;;;;5095932;28;20577;-81
2022/04/18 13:05:51;;;;;;;3.22;2.78;;;19.30;48.40;;;;;;5096398;28;20054;-81
2022/04/18 13:08:17;;;;;;;6.47;2.85;;;19.30;47.60;;;;;;5095332;28;20560;-81
2022/04/18 13:10:44;;;;;;;4.15;3.33;;;19.40;47.00;;;;;;5096049;28;20043;-81
2022/04/18 13:13:19;;;;;;;4.82;2.92;;;19.50;44.90;;;;;;5095154;28;20052;-81
2022/04/18 13:15:46;;;;;;;3.72;3.03;;;19.50;44.70;;;;;;5114481;28;20126;-81
2022/04/18 13:18:21;;;;;;;3.08;2.78;;;19.50;47.20;;;;;;5095816;28;20142;-82